sensor_id;sensor_type;location;lat;lon;timestamp;temperature;humidity
20174;DHT22;10246;50.620;7.232;2023-03-21T00:00:55;10.90;1.00
20174;DHT22;10246;50.620;7.232;2023-03-21T00:03:22;10.80;1.00
20174;DHT22;10246;50.620;7.232;2023-03-21T00:05:50;10.80;1.00
20174;DHT22;10246;50.620;7.232;2023-03-21T00:08:18;10.80;1.00
20174;DHT22;10246;50.620;7.232;2023-03-21T00:10:45;10.80;1.00
20174;DHT22;10246;50.620;7.232;2023-03-21T00:13:14;10.80;1.00
20174;DHT22;10246;50.620;7.232;2023-03-21T00:15:42;10.80;1.00
20174;DHT22;10246;50.620;7.232;2023-03-21T00:18:15;10.80;1.00
20174;DHT22;10246;50.620;7.232;2023-03-21T00:20:42;10.80;1.00
20174;DHT22;10246;50.620;7.232;2023-03-21T00:23:13;10.80;1.00
20174;DHT22;10246;50.620;7.232;2023-03-21T00:25:40;10.70;1.00
20174;DHT22;10246;50.620;7.232;2023-03-21T00:28:06;10.70;1.00
20174;DHT22;10246;50.620;7.232;2023-03-21T00:30:35;10.70;1.00
20174;DHT22;10246;50.620;7.232;2023-03-21T00:33:01;10.70;1.00
20174;DHT22;10246;50.620;7.232;2023-03-21T00:35:28;10.70;1.00
20174;DHT22;10246;50.620;7.232;2023-03-21T00:37:55;10.70;1.00
20174;DHT22;10246;50.620;7.232;2023-03-21T00:40:22;10.70;1.00
20174;DHT22;10246;50.620;7.232;2023-03-21T00:42:49;10.70;1.00
20174;DHT22;10246;50.620;7.232;2023-03-21T00:45:16;10.70;1.00
20174;DHT22;10246;50.620;7.232;2023-03-21T00:47:45;10.70;1.00
20174;DHT22;10246;50.620;7.232;2023-03-21T00:50:11;10.70;1.00
20174;DHT22;10246;50.620;7.232;2023-03-21T00:52:38;10.70;1.00
20174;DHT22;10246;50.620;7.232;2023-03-21T00:55:06;10.70;1.00
20174;DHT22;10246;50.620;7.232;2023-03-21T00:57:33;10.60;1.00
20174;DHT22;10246;50.620;7.232;2023-03-21T01:00:00;10.60;1.00
20174;DHT22;10246;50.620;7.232;2023-03-21T01:02:28;10.70;1.00
20174;DHT22;10246;50.620;7.232;2023-03-21T01:04:56;10.60;1.00
20174;DHT22;10246;50.620;7.232;2023-03-21T01:07:23;10.60;1.00
20174;DHT22;10246;50.620;7.232;2023-03-21T01:09:50;10.60;1.00
20174;DHT22;10246;50.620;7.232;2023-03-21T01:12:16;10.70;1.00
20174;DHT22;10246;50.620;7.232;2023-03-21T01:14:43;10.70;1.00
20174;DHT22;10246;50.620;7.232;2023-03-21T01:17:10;10.70;1.00
20174;DHT22;10246;50.620;7.232;2023-03-21T01:19:37;10.70;1.00
20174;DHT22;10246;50.620;7.232;2023-03-21T01:22:05;10.70;1.00
20174;DHT22;10246;50.620;7.232;2023-03-21T01:24:33;10.70;1.00
20174;DHT22;10246;50.620;7.232;2023-03-21T01:27:01;10.70;1.00
20174;DHT22;10246;50.620;7.232;2023-03-21T01:29:27;10.70;1.00
20174;DHT22;10246;50.620;7.232;2023-03-21T01:31:54;10.80;1.00
20174;DHT22;10246;50.620;7.232;2023-03-21T01:34:21;10.70;1.00
20174;DHT22;10246;50.620;7.232;2023-03-21T01:36:48;10.70;1.00
20174;DHT22;10246;50.620;7.232;2023-03-21T01:39:16;10.70;1.00
20174;DHT22;10246;50.620;7.232;2023-03-21T01:41:43;10.70;1.00
20174;DHT22;10246;50.620;7.232;2023-03-21T01:44:14;10.70;1.00
20174;DHT22;10246;50.620;7.232;2023-03-21T01:46:43;10.60;1.00
20174;DHT22;10246;50.620;7.232;2023-03-21T01:49:16;10.70;1.00
20174;DHT22;10246;50.620;7.232;2023-03-21T01:51:47;10.70;1.00
20174;DHT22;10246;50.620;7.232;2023-03-21T01:54:21;10.60;1.00
20174;DHT22;10246;50.620;7.232;2023-03-21T01:56:50;10.70;1.00
20174;DHT22;10246;50.620;7.232;2023-03-21T01:59:20;10.70;1.00
20174;DHT22;10246;50.620;7.232;2023-03-21T02:01:51;10.70;1.00
20174;DHT22;10246;50.620;7.232;2023-03-21T02:04:19;10.80;1.00
20174;DHT22;10246;50.620;7.232;2023-03-21T02:06:56;10.80;1.00
20174;DHT22;10246;50.620;7.232;2023-03-21T02:09:29;10.80;1.00
20174;DHT22;10246;50.620;7.232;2023-03-21T02:11:58;10.70;1.00
20174;DHT22;10246;50.620;7.232;2023-03-21T02:14:25;10.70;1.00
20174;DHT22;10246;50.620;7.232;2023-03-21T02:17:00;10.60;1.00
20174;DHT22;10246;50.620;7.232;2023-03-21T02:19:53;10.60;1.00
20174;DHT22;10246;50.620;7.232;2023-03-21T02:23:04;10.60;1.00
20174;DHT22;10246;50.620;7.232;2023-03-21T02:25:59;10.70;1.00
20174;DHT22;10246;50.620;7.232;2023-03-21T02:28:36;10.70;1.00
20174;DHT22;10246;50.620;7.232;2023-03-21T02:31:25;10.70;1.00
20174;DHT22;10246;50.620;7.232;2023-03-21T02:34:37;10.70;1.00
20174;DHT22;10246;50.620;7.232;2023-03-21T02:37:15;10.80;1.00
20174;DHT22;10246;50.620;7.232;2023-03-21T02:39:52;10.80;1.00
20174;DHT22;10246;50.620;7.232;2023-03-21T02:42:26;10.70;1.00
20174;DHT22;10246;50.620;7.232;2023-03-21T02:44:59;10.80;1.00
20174;DHT22;10246;50.620;7.232;2023-03-21T02:47:30;10.80;1.00
20174;DHT22;10246;50.620;7.232;2023-03-21T02:50:05;10.80;1.00
20174;DHT22;10246;50.620;7.232;2023-03-21T02:52:36;10.80;1.00
20174;DHT22;10246;50.620;7.232;2023-03-21T02:55:05;10.70;1.00
20174;DHT22;10246;50.620;7.232;2023-03-21T02:57:38;10.80;1.00
20174;DHT22;10246;50.620;7.232;2023-03-21T03:00:07;10.80;1.00
20174;DHT22;10246;50.620;7.232;2023-03-21T03:02:37;10.70;1.00
20174;DHT22;10246;50.620;7.232;2023-03-21T03:05:12;10.70;1.00
20174;DHT22;10246;50.620;7.232;2023-03-21T03:07:49;10.70;1.00
20174;DHT22;10246;50.620;7.232;2023-03-21T03:10:32;10.60;1.00
20174;DHT22;10246;50.620;7.232;2023-03-21T03:13:14;10.60;1.00
20174;DHT22;10246;50.620;7.232;2023-03-21T03:15:52;10.60;1.00
20174;DHT22;10246;50.620;7.232;2023-03-21T03:18:27;10.50;1.00
20174;DHT22;10246;50.620;7.232;2023-03-21T03:21:01;10.50;1.00
20174;DHT22;10246;50.620;7.232;2023-03-21T03:23:35;10.40;1.00
20174;DHT22;10246;50.620;7.232;2023-03-21T03:26:05;10.50;1.00
20174;DHT22;10246;50.620;7.232;2023-03-21T03:28:37;10.40;1.00
20174;DHT22;10246;50.620;7.232;2023-03-21T03:31:06;10.40;1.00
20174;DHT22;10246;50.620;7.232;2023-03-21T03:33:39;10.40;1.00
20174;DHT22;10246;50.620;7.232;2023-03-21T03:36:09;10.40;1.00
20174;DHT22;10246;50.620;7.232;2023-03-21T03:38:38;10.40;1.00
20174;DHT22;10246;50.620;7.232;2023-03-21T03:41:10;10.40;1.00
20174;DHT22;10246;50.620;7.232;2023-03-21T03:43:43;10.30;1.00
20174;DHT22;10246;50.620;7.232;2023-03-21T03:46:17;10.30;1.00
20174;DHT22;10246;50.620;7.232;2023-03-21T03:48:48;10.30;1.00
20174;DHT22;10246;50.620;7.232;2023-03-21T03:51:21;10.30;1.00
20174;DHT22;10246;50.620;7.232;2023-03-21T03:53:53;10.30;1.00
20174;DHT22;10246;50.620;7.232;2023-03-21T03:56:21;10.20;1.00
20174;DHT22;10246;50.620;7.232;2023-03-21T03:58:50;10.20;1.00
20174;DHT22;10246;50.620;7.232;2023-03-21T04:01:16;10.20;1.00
20174;DHT22;10246;50.620;7.232;2023-03-21T04:03:46;10.20;1.00
20174;DHT22;10246;50.620;7.232;2023-03-21T04:06:14;10.10;1.00
20174;DHT22;10246;50.620;7.232;2023-03-21T04:08:41;10.10;1.00
20174;DHT22;10246;50.620;7.232;2023-03-21T04:11:09;10.10;1.00
20174;DHT22;10246;50.620;7.232;2023-03-21T04:13:36;10.10;1.00
20174;DHT22;10246;50.620;7.232;2023-03-21T04:16:03;10.10;1.00
20174;DHT22;10246;50.620;7.232;2023-03-21T04:18:30;10.10;1.00
20174;DHT22;10246;50.620;7.232;2023-03-21T04:20:56;10.10;1.00
20174;DHT22;10246;50.620;7.232;2023-03-21T04:23:23;10.00;1.00
20174;DHT22;10246;50.620;7.232;2023-03-21T04:25:50;10.00;1.00
20174;DHT22;10246;50.620;7.232;2023-03-21T04:28:19;10.00;1.00
20174;DHT22;10246;50.620;7.232;2023-03-21T04:30:47;10.00;1.00
20174;DHT22;10246;50.620;7.232;2023-03-21T04:33:15;10.00;1.00
20174;DHT22;10246;50.620;7.232;2023-03-21T04:35:42;9.90;1.00
20174;DHT22;10246;50.620;7.232;2023-03-21T04:38:10;10.00;1.00
20174;DHT22;10246;50.620;7.232;2023-03-21T04:40:37;10.00;1.00
20174;DHT22;10246;50.620;7.232;2023-03-21T04:43:03;10.00;1.00
20174;DHT22;10246;50.620;7.232;2023-03-21T04:45:32;9.90;1.00
20174;DHT22;10246;50.620;7.232;2023-03-21T04:47:58;9.90;1.00
20174;DHT22;10246;50.620;7.232;2023-03-21T04:50:25;9.90;1.00
20174;DHT22;10246;50.620;7.232;2023-03-21T04:52:52;9.80;1.00
20174;DHT22;10246;50.620;7.232;2023-03-21T04:55:18;9.80;1.00
20174;DHT22;10246;50.620;7.232;2023-03-21T04:57:46;9.80;1.00
20174;DHT22;10246;50.620;7.232;2023-03-21T05:00:14;9.80;1.00
20174;DHT22;10246;50.620;7.232;2023-03-21T05:02:42;9.80;1.00
20174;DHT22;10246;50.620;7.232;2023-03-21T05:05:09;9.90;1.00
20174;DHT22;10246;50.620;7.232;2023-03-21T05:07:37;9.90;1.00
20174;DHT22;10246;50.620;7.232;2023-03-21T05:10:05;9.80;1.00
20174;DHT22;10246;50.620;7.232;2023-03-21T05:12:32;9.80;1.00
20174;DHT22;10246;50.620;7.232;2023-03-21T05:14:59;9.80;1.00
20174;DHT22;10246;50.620;7.232;2023-03-21T05:17:26;9.80;1.00
20174;DHT22;10246;50.620;7.232;2023-03-21T05:19:54;9.80;1.00
20174;DHT22;10246;50.620;7.232;2023-03-21T05:22:22;9.80;1.00
20174;DHT22;10246;50.620;7.232;2023-03-21T05:24:51;9.80;1.00
20174;DHT22;10246;50.620;7.232;2023-03-21T05:27:20;9.80;1.00
20174;DHT22;10246;50.620;7.232;2023-03-21T05:30:00;9.80;1.00
20174;DHT22;10246;50.620;7.232;2023-03-21T05:32:27;9.80;1.00
20174;DHT22;10246;50.620;7.232;2023-03-21T05:34:55;9.80;1.00
20174;DHT22;10246;50.620;7.232;2023-03-21T05:37:22;9.80;1.00
20174;DHT22;10246;50.620;7.232;2023-03-21T05:39:49;9.80;1.00
20174;DHT22;10246;50.620;7.232;2023-03-21T05:42:16;9.80;1.00
20174;DHT22;10246;50.620;7.232;2023-03-21T05:44:44;9.80;1.00
20174;DHT22;10246;50.620;7.232;2023-03-21T05:47:11;9.90;1.00
20174;DHT22;10246;50.620;7.232;2023-03-21T05:49:38;9.90;1.00
20174;DHT22;10246;50.620;7.232;2023-03-21T05:52:06;9.90;1.00
20174;DHT22;10246;50.620;7.232;2023-03-21T05:54:33;9.90;1.00
20174;DHT22;10246;50.620;7.232;2023-03-21T05:57:00;9.90;1.00
20174;DHT22;10246;50.620;7.232;2023-03-21T05:59:27;9.90;1.00
20174;DHT22;10246;50.620;7.232;2023-03-21T06:01:54;9.90;1.00
20174;DHT22;10246;50.620;7.232;2023-03-21T06:04:21;9.90;1.00
20174;DHT22;10246;50.620;7.232;2023-03-21T06:06:48;9.90;1.00
20174;DHT22;10246;50.620;7.232;2023-03-21T06:09:17;9.90;1.00
20174;DHT22;10246;50.620;7.232;2023-03-21T06:11:46;9.90;1.00
20174;DHT22;10246;50.620;7.232;2023-03-21T06:14:14;10.00;1.00
20174;DHT22;10246;50.620;7.232;2023-03-21T06:16:40;10.10;1.00
20174;DHT22;10246;50.620;7.232;2023-03-21T06:19:08;10.00;1.00
20174;DHT22;10246;50.620;7.232;2023-03-21T06:21:34;10.00;1.00
20174;DHT22;10246;50.620;7.232;2023-03-21T06:24:01;10.00;1.00
20174;DHT22;10246;50.620;7.232;2023-03-21T06:26:29;10.00;1.00
20174;DHT22;10246;50.620;7.232;2023-03-21T06:28:56;10.10;1.20
20174;DHT22;10246;50.620;7.232;2023-03-21T06:31:23;10.10;1.70
20174;DHT22;10246;50.620;7.232;2023-03-21T06:33:51;10.20;2.10
20174;DHT22;10246;50.620;7.232;2023-03-21T06:36:19;10.20;2.90
20174;DHT22;10246;50.620;7.232;2023-03-21T06:38:46;10.30;2.50
20174;DHT22;10246;50.620;7.232;2023-03-21T06:41:13;10.40;1.00
20174;DHT22;10246;50.620;7.232;2023-03-21T06:43:41;10.50;1.00
20174;DHT22;10246;50.620;7.232;2023-03-21T06:46:08;10.50;1.00
20174;DHT22;10246;50.620;7.232;2023-03-21T06:48:35;10.50;1.00
20174;DHT22;10246;50.620;7.232;2023-03-21T06:51:09;10.60;1.60
20174;DHT22;10246;50.620;7.232;2023-03-21T06:53:36;10.60;1.20
20174;DHT22;10246;50.620;7.232;2023-03-21T06:56:03;10.60;1.70
20174;DHT22;10246;50.620;7.232;2023-03-21T06:58:30;10.60;2.00
20174;DHT22;10246;50.620;7.232;2023-03-21T07:01:00;10.60;2.20
20174;DHT22;10246;50.620;7.232;2023-03-21T07:03:27;10.50;2.40
20174;DHT22;10246;50.620;7.232;2023-03-21T07:05:54;10.50;2.60
20174;DHT22;10246;50.620;7.232;2023-03-21T07:08:21;10.60;2.70
20174;DHT22;10246;50.620;7.232;2023-03-21T07:10:48;10.60;2.10
20174;DHT22;10246;50.620;7.232;2023-03-21T07:13:15;10.70;1.60
20174;DHT22;10246;50.620;7.232;2023-03-21T07:15:42;10.70;1.90
20174;DHT22;10246;50.620;7.232;2023-03-21T07:18:10;10.70;1.70
20174;DHT22;10246;50.620;7.232;2023-03-21T07:20:37;10.80;1.00
20174;DHT22;10246;50.620;7.232;2023-03-21T07:23:04;10.90;1.00
20174;DHT22;10246;50.620;7.232;2023-03-21T07:25:31;10.80;1.00
20174;DHT22;10246;50.620;7.232;2023-03-21T07:27:58;10.90;1.30
20174;DHT22;10246;50.620;7.232;2023-03-21T07:30:26;10.90;1.90
20174;DHT22;10246;50.620;7.232;2023-03-21T07:32:53;10.80;1.80
20174;DHT22;10246;50.620;7.232;2023-03-21T07:35:21;10.90;2.20
20174;DHT22;10246;50.620;7.232;2023-03-21T07:37:48;10.90;2.40
20174;DHT22;10246;50.620;7.232;2023-03-21T07:40:15;10.90;3.20
20174;DHT22;10246;50.620;7.232;2023-03-21T07:42:42;10.90;3.70
20174;DHT22;10246;50.620;7.232;2023-03-21T07:45:10;10.90;4.10
20174;DHT22;10246;50.620;7.232;2023-03-21T07:47:39;10.90;3.40
20174;DHT22;10246;50.620;7.232;2023-03-21T07:50:07;10.90;4.50
20174;DHT22;10246;50.620;7.232;2023-03-21T07:52:35;10.90;5.90
20174;DHT22;10246;50.620;7.232;2023-03-21T07:55:02;10.80;7.00
20174;DHT22;10246;50.620;7.232;2023-03-21T07:57:28;10.90;7.30
20174;DHT22;10246;50.620;7.232;2023-03-21T07:59:55;10.90;7.40
20174;DHT22;10246;50.620;7.232;2023-03-21T08:02:22;10.90;7.80
20174;DHT22;10246;50.620;7.232;2023-03-21T08:04:49;10.90;8.40
20174;DHT22;10246;50.620;7.232;2023-03-21T08:07:16;10.80;9.60
20174;DHT22;10246;50.620;7.232;2023-03-21T08:09:45;10.70;10.60
20174;DHT22;10246;50.620;7.232;2023-03-21T08:12:12;10.70;10.50
20174;DHT22;10246;50.620;7.232;2023-03-21T08:14:38;10.80;10.90
20174;DHT22;10246;50.620;7.232;2023-03-21T08:17:05;10.80;11.50
20174;DHT22;10246;50.620;7.232;2023-03-21T08:19:33;10.70;11.90
20174;DHT22;10246;50.620;7.232;2023-03-21T08:22:02;10.70;11.40
20174;DHT22;10246;50.620;7.232;2023-03-21T08:24:30;10.70;12.80
20174;DHT22;10246;50.620;7.232;2023-03-21T08:27:01;10.70;13.10
20174;DHT22;10246;50.620;7.232;2023-03-21T08:29:28;10.70;13.30
20174;DHT22;10246;50.620;7.232;2023-03-21T08:31:54;10.70;12.80
20174;DHT22;10246;50.620;7.232;2023-03-21T08:34:22;10.70;12.80
20174;DHT22;10246;50.620;7.232;2023-03-21T08:36:49;10.70;12.90
20174;DHT22;10246;50.620;7.232;2023-03-21T08:39:16;10.70;12.80
20174;DHT22;10246;50.620;7.232;2023-03-21T08:41:42;10.70;14.20
20174;DHT22;10246;50.620;7.232;2023-03-21T08:44:11;10.70;14.30
20174;DHT22;10246;50.620;7.232;2023-03-21T08:46:37;10.70;14.60
20174;DHT22;10246;50.620;7.232;2023-03-21T08:49:04;10.70;14.40
20174;DHT22;10246;50.620;7.232;2023-03-21T08:51:31;10.70;14.50
20174;DHT22;10246;50.620;7.232;2023-03-21T08:53:58;10.70;15.00
20174;DHT22;10246;50.620;7.232;2023-03-21T08:56:25;10.70;15.50
20174;DHT22;10246;50.620;7.232;2023-03-21T08:58:51;10.70;16.10
20174;DHT22;10246;50.620;7.232;2023-03-21T09:01:20;10.70;16.30
20174;DHT22;10246;50.620;7.232;2023-03-21T09:03:47;10.70;15.40
20174;DHT22;10246;50.620;7.232;2023-03-21T09:06:13;10.70;15.50
20174;DHT22;10246;50.620;7.232;2023-03-21T09:08:41;10.60;15.70
20174;DHT22;10246;50.620;7.232;2023-03-21T09:11:10;10.60;15.80
20174;DHT22;10246;50.620;7.232;2023-03-21T09:13:37;10.60;16.40
20174;DHT22;10246;50.620;7.232;2023-03-21T09:16:04;10.60;16.50
20174;DHT22;10246;50.620;7.232;2023-03-21T09:18:33;10.70;16.80
20174;DHT22;10246;50.620;7.232;2023-03-21T09:21:15;10.60;16.80
20174;DHT22;10246;50.620;7.232;2023-03-21T09:23:42;10.70;16.70
20174;DHT22;10246;50.620;7.232;2023-03-21T09:26:11;10.80;16.10
20174;DHT22;10246;50.620;7.232;2023-03-21T09:28:38;10.70;16.00
20174;DHT22;10246;50.620;7.232;2023-03-21T09:31:06;10.80;15.80
20174;DHT22;10246;50.620;7.232;2023-03-21T09:33:37;10.70;14.80
20174;DHT22;10246;50.620;7.232;2023-03-21T09:36:05;10.70;16.20
20174;DHT22;10246;50.620;7.232;2023-03-21T09:38:36;10.70;16.70
20174;DHT22;10246;50.620;7.232;2023-03-21T09:41:11;10.80;17.40
20174;DHT22;10246;50.620;7.232;2023-03-21T09:43:49;10.80;17.00
20174;DHT22;10246;50.620;7.232;2023-03-21T09:46:23;10.80;16.50
20174;DHT22;10246;50.620;7.232;2023-03-21T09:48:56;10.70;16.40
20174;DHT22;10246;50.620;7.232;2023-03-21T09:51:27;10.70;16.50
20174;DHT22;10246;50.620;7.232;2023-03-21T09:53:58;10.70;16.80
20174;DHT22;10246;50.620;7.232;2023-03-21T09:56:27;10.70;17.10
20174;DHT22;10246;50.620;7.232;2023-03-21T09:58:56;10.70;17.10
20174;DHT22;10246;50.620;7.232;2023-03-21T10:01:26;10.70;17.30
20174;DHT22;10246;50.620;7.232;2023-03-21T10:03:59;10.80;17.00
20174;DHT22;10246;50.620;7.232;2023-03-21T10:06:27;10.70;16.80
20174;DHT22;10246;50.620;7.232;2023-03-21T10:08:59;10.80;16.60
20174;DHT22;10246;50.620;7.232;2023-03-21T10:11:38;10.80;16.10
20174;DHT22;10246;50.620;7.232;2023-03-21T10:14:15;10.80;16.10
20174;DHT22;10246;50.620;7.232;2023-03-21T10:16:45;10.80;15.10
20174;DHT22;10246;50.620;7.232;2023-03-21T10:19:16;10.90;15.60
20174;DHT22;10246;50.620;7.232;2023-03-21T10:21:46;10.90;15.80
20174;DHT22;10246;50.620;7.232;2023-03-21T10:24:16;11.00;15.50
20174;DHT22;10246;50.620;7.232;2023-03-21T10:26:45;11.00;14.80
20174;DHT22;10246;50.620;7.232;2023-03-21T10:29:14;11.10;15.10
20174;DHT22;10246;50.620;7.232;2023-03-21T10:31:44;11.10;14.70
20174;DHT22;10246;50.620;7.232;2023-03-21T10:34:16;11.10;14.30
20174;DHT22;10246;50.620;7.232;2023-03-21T10:36:44;11.10;14.60
20174;DHT22;10246;50.620;7.232;2023-03-21T10:39:20;11.20;15.30
20174;DHT22;10246;50.620;7.232;2023-03-21T10:41:48;11.20;15.10
20174;DHT22;10246;50.620;7.232;2023-03-21T10:44:17;11.20;15.10
20174;DHT22;10246;50.620;7.232;2023-03-21T10:46:54;11.20;14.10
20174;DHT22;10246;50.620;7.232;2023-03-21T10:49:24;11.20;14.40
20174;DHT22;10246;50.620;7.232;2023-03-21T10:51:54;11.10;13.40
20174;DHT22;10246;50.620;7.232;2023-03-21T10:54:27;11.10;14.70
20174;DHT22;10246;50.620;7.232;2023-03-21T10:56:57;11.10;15.10
20174;DHT22;10246;50.620;7.232;2023-03-21T10:59:32;11.10;14.30
20174;DHT22;10246;50.620;7.232;2023-03-21T11:02:03;11.10;13.60
20174;DHT22;10246;50.620;7.232;2023-03-21T11:04:32;11.10;14.60
20174;DHT22;10246;50.620;7.232;2023-03-21T11:07:02;11.10;15.20
20174;DHT22;10246;50.620;7.232;2023-03-21T11:09:44;11.20;15.40
20174;DHT22;10246;50.620;7.232;2023-03-21T11:12:14;11.20;14.60
20174;DHT22;10246;50.620;7.232;2023-03-21T11:14:43;11.20;14.00
20174;DHT22;10246;50.620;7.232;2023-03-21T11:17:21;11.20;14.30
20174;DHT22;10246;50.620;7.232;2023-03-21T11:19:52;11.20;14.60
20174;DHT22;10246;50.620;7.232;2023-03-21T11:22:22;11.30;14.90
20174;DHT22;10246;50.620;7.232;2023-03-21T11:24:51;11.20;14.90
20174;DHT22;10246;50.620;7.232;2023-03-21T11:27:19;11.20;13.30
20174;DHT22;10246;50.620;7.232;2023-03-21T11:29:48;11.20;13.10
20174;DHT22;10246;50.620;7.232;2023-03-21T11:32:21;11.10;14.10
20174;DHT22;10246;50.620;7.232;2023-03-21T11:34:52;11.20;14.80
20174;DHT22;10246;50.620;7.232;2023-03-21T11:37:26;11.20;14.80
20174;DHT22;10246;50.620;7.232;2023-03-21T11:40:05;11.10;14.20
20174;DHT22;10246;50.620;7.232;2023-03-21T11:42:41;11.10;14.40
20174;DHT22;10246;50.620;7.232;2023-03-21T11:45:15;11.20;14.50
20174;DHT22;10246;50.620;7.232;2023-03-21T11:47:42;11.20;13.80
20174;DHT22;10246;50.620;7.232;2023-03-21T11:50:17;11.20;14.40
20174;DHT22;10246;50.620;7.232;2023-03-21T11:52:57;11.10;14.90
20174;DHT22;10246;50.620;7.232;2023-03-21T11:55:34;11.10;15.00
20174;DHT22;10246;50.620;7.232;2023-03-21T11:58:15;11.10;14.90
20174;DHT22;10246;50.620;7.232;2023-03-21T12:00:50;11.10;15.20
20174;DHT22;10246;50.620;7.232;2023-03-21T12:03:45;11.10;15.00
20174;DHT22;10246;50.620;7.232;2023-03-21T12:06:18;11.10;15.40
20174;DHT22;10246;50.620;7.232;2023-03-21T12:08:53;11.10;15.00
20174;DHT22;10246;50.620;7.232;2023-03-21T12:11:28;11.00;14.90
20174;DHT22;10246;50.620;7.232;2023-03-21T12:14:03;11.00;14.90
20174;DHT22;10246;50.620;7.232;2023-03-21T12:16:47;11.00;15.60
20174;DHT22;10246;50.620;7.232;2023-03-21T12:19:32;11.00;16.20
20174;DHT22;10246;50.620;7.232;2023-03-21T12:22:11;11.00;16.10
20174;DHT22;10246;50.620;7.232;2023-03-21T12:24:45;11.10;16.10
20174;DHT22;10246;50.620;7.232;2023-03-21T12:27:18;11.10;16.10
20174;DHT22;10246;50.620;7.232;2023-03-21T12:30:03;11.00;15.70
20174;DHT22;10246;50.620;7.232;2023-03-21T12:32:49;11.00;15.70
20174;DHT22;10246;50.620;7.232;2023-03-21T12:35:30;11.00;17.30
20174;DHT22;10246;50.620;7.232;2023-03-21T12:38:09;11.00;17.40
20174;DHT22;10246;50.620;7.232;2023-03-21T12:43:49;11.10;16.00
20174;DHT22;10246;50.620;7.232;2023-03-21T12:46:21;11.10;17.10
20174;DHT22;10246;50.620;7.232;2023-03-21T12:48:52;11.10;17.20
20174;DHT22;10246;50.620;7.232;2023-03-21T12:51:25;11.20;17.20
20174;DHT22;10246;50.620;7.232;2023-03-21T12:54:04;11.20;17.00
20174;DHT22;10246;50.620;7.232;2023-03-21T12:56:36;11.20;17.00
20174;DHT22;10246;50.620;7.232;2023-03-21T12:59:13;11.10;16.50
20174;DHT22;10246;50.620;7.232;2023-03-21T13:01:45;11.20;17.30
20174;DHT22;10246;50.620;7.232;2023-03-21T13:04:37;11.20;17.50
20174;DHT22;10246;50.620;7.232;2023-03-21T13:07:09;11.30;16.80
20174;DHT22;10246;50.620;7.232;2023-03-21T13:09:40;11.20;17.20
20174;DHT22;10246;50.620;7.232;2023-03-21T13:12:24;11.40;17.60
20174;DHT22;10246;50.620;7.232;2023-03-21T13:15:06;11.40;16.20
20174;DHT22;10246;50.620;7.232;2023-03-21T13:17:44;11.50;16.90
20174;DHT22;10246;50.620;7.232;2023-03-21T13:20:21;11.50;16.60
20174;DHT22;10246;50.620;7.232;2023-03-21T13:22:52;11.50;17.40
20174;DHT22;10246;50.620;7.232;2023-03-21T13:25:22;11.50;17.20
20174;DHT22;10246;50.620;7.232;2023-03-21T13:27:52;11.50;17.60
20174;DHT22;10246;50.620;7.232;2023-03-21T13:30:21;11.60;17.20
20174;DHT22;10246;50.620;7.232;2023-03-21T13:33:01;11.70;17.50
20174;DHT22;10246;50.620;7.232;2023-03-21T13:35:34;11.70;17.40
20174;DHT22;10246;50.620;7.232;2023-03-21T13:38:04;11.70;17.60
20174;DHT22;10246;50.620;7.232;2023-03-21T13:40:37;11.80;16.60
20174;DHT22;10246;50.620;7.232;2023-03-21T13:43:39;11.80;16.00
20174;DHT22;10246;50.620;7.232;2023-03-21T13:46:08;11.80;16.50
20174;DHT22;10246;50.620;7.232;2023-03-21T13:48:46;11.80;17.30
20174;DHT22;10246;50.620;7.232;2023-03-21T13:51:42;11.80;16.90
20174;DHT22;10246;50.620;7.232;2023-03-21T13:54:20;11.90;17.10
20174;DHT22;10246;50.620;7.232;2023-03-21T13:56:52;11.90;16.00
20174;DHT22;10246;50.620;7.232;2023-03-21T13:59:37;12.00;15.80
20174;DHT22;10246;50.620;7.232;2023-03-21T14:02:28;12.00;15.50
20174;DHT22;10246;50.620;7.232;2023-03-21T14:04:58;12.00;15.90
20174;DHT22;10246;50.620;7.232;2023-03-21T14:07:28;12.10;15.30
20174;DHT22;10246;50.620;7.232;2023-03-21T14:09:59;12.20;13.70
20174;DHT22;10246;50.620;7.232;2023-03-21T14:12:33;12.10;13.70
20174;DHT22;10246;50.620;7.232;2023-03-21T14:15:06;12.10;13.40
20174;DHT22;10246;50.620;7.232;2023-03-21T14:17:34;12.10;13.70
20174;DHT22;10246;50.620;7.232;2023-03-21T14:20:05;12.20;13.70
20174;DHT22;10246;50.620;7.232;2023-03-21T14:22:37;12.20;13.70
20174;DHT22;10246;50.620;7.232;2023-03-21T14:25:07;12.30;13.30
20174;DHT22;10246;50.620;7.232;2023-03-21T14:27:41;12.30;12.20
20174;DHT22;10246;50.620;7.232;2023-03-21T14:30:11;12.40;11.60
20174;DHT22;10246;50.620;7.232;2023-03-21T14:32:46;12.30;11.10
20174;DHT22;10246;50.620;7.232;2023-03-21T14:35:13;12.30;11.20
20174;DHT22;10246;50.620;7.232;2023-03-21T14:37:43;12.30;11.00
20174;DHT22;10246;50.620;7.232;2023-03-21T14:40:18;12.30;11.80
20174;DHT22;10246;50.620;7.232;2023-03-21T14:42:49;12.30;11.30
20174;DHT22;10246;50.620;7.232;2023-03-21T14:45:19;12.30;12.10
20174;DHT22;10246;50.620;7.232;2023-03-21T14:47:57;12.30;11.30
20174;DHT22;10246;50.620;7.232;2023-03-21T14:50:29;12.30;11.30
20174;DHT22;10246;50.620;7.232;2023-03-21T14:52:58;12.40;11.20
20174;DHT22;10246;50.620;7.232;2023-03-21T14:55:26;12.40;10.20
20174;DHT22;10246;50.620;7.232;2023-03-21T14:57:55;12.40;10.60
20174;DHT22;10246;50.620;7.232;2023-03-21T15:00:25;12.40;10.50
20174;DHT22;10246;50.620;7.232;2023-03-21T15:02:53;12.40;10.10
20174;DHT22;10246;50.620;7.232;2023-03-21T15:05:25;12.50;10.00
20174;DHT22;10246;50.620;7.232;2023-03-21T15:07:55;12.50;9.60
20174;DHT22;10246;50.620;7.232;2023-03-21T15:10:25;12.50;9.60
20174;DHT22;10246;50.620;7.232;2023-03-21T15:12:56;12.40;9.10
20174;DHT22;10246;50.620;7.232;2023-03-21T15:15:25;12.40;9.30
20174;DHT22;10246;50.620;7.232;2023-03-21T15:17:53;12.50;9.40
20174;DHT22;10246;50.620;7.232;2023-03-21T15:20:24;12.50;8.90
20174;DHT22;10246;50.620;7.232;2023-03-21T15:22:54;12.60;8.30
20174;DHT22;10246;50.620;7.232;2023-03-21T15:25:26;12.60;8.90
20174;DHT22;10246;50.620;7.232;2023-03-21T15:27:56;12.70;8.70
20174;DHT22;10246;50.620;7.232;2023-03-21T15:30:26;12.70;8.30
20174;DHT22;10246;50.620;7.232;2023-03-21T15:32:54;12.70;8.00
20174;DHT22;10246;50.620;7.232;2023-03-21T15:35:25;12.80;7.30
20174;DHT22;10246;50.620;7.232;2023-03-21T15:37:54;12.90;7.40
20174;DHT22;10246;50.620;7.232;2023-03-21T15:40:24;13.00;7.00
20174;DHT22;10246;50.620;7.232;2023-03-21T15:43:11;13.10;6.00
20174;DHT22;10246;50.620;7.232;2023-03-21T15:45:46;13.30;6.50
20174;DHT22;10246;50.620;7.232;2023-03-21T15:48:13;13.30;5.00
20174;DHT22;10246;50.620;7.232;2023-03-21T15:50:45;13.40;4.60
20174;DHT22;10246;50.620;7.232;2023-03-21T15:53:15;13.40;4.20
20174;DHT22;10246;50.620;7.232;2023-03-21T15:55:46;13.40;5.40
20174;DHT22;10246;50.620;7.232;2023-03-21T15:58:20;13.40;3.70
20174;DHT22;10246;50.620;7.232;2023-03-21T16:00:49;13.30;3.40
20174;DHT22;10246;50.620;7.232;2023-03-21T16:03:22;13.30;3.70
20174;DHT22;10246;50.620;7.232;2023-03-21T16:06:05;13.30;4.80